sensor_id;sensor_type;location;lat;lon;timestamp;P1;durP1;ratioP1;P2;durP2;ratioP2
72813;SDS011;60945;48.516;-2.768;2023-10-08T00:01:14;11.05;;;10.23;;
72813;SDS011;60945;48.516;-2.768;2023-10-08T00:03:42;11.57;;;10.55;;
72813;SDS011;60945;48.516;-2.768;2023-10-08T00:08:44;11.60;;;10.73;;
72813;SDS011;60945;48.516;-2.768;2023-10-08T00:11:10;12.18;;;11.18;;
72813;SDS011;60945;48.516;-2.768;2023-10-08T00:13:36;11.40;;;10.50;;
72813;SDS011;60945;48.516;-2.768;2023-10-08T00:16:08;11.88;;;10.90;;
72813;SDS011;60945;48.516;-2.768;2023-10-08T00:18:42;12.32;;;11.25;;
72813;SDS011;60945;48.516;-2.768;2023-10-08T00:21:14;12.23;;;11.02;;
72813;SDS011;60945;48.516;-2.768;2023-10-08T00:23:40;11.85;;;10.88;;
72813;SDS011;60945;48.516;-2.768;2023-10-08T00:26:14;13.27;;;11.48;;
72813;SDS011;60945;48.516;-2.768;2023-10-08T00:28:44;12.25;;;11.27;;
72813;SDS011;60945;48.516;-2.768;2023-10-08T00:31:13;12.45;;;11.32;;
72813;SDS011;60945;48.516;-2.768;2023-10-08T00:33:42;12.93;;;11.90;;
72813;SDS011;60945;48.516;-2.768;2023-10-08T00:36:12;11.25;;;10.48;;
72813;SDS011;60945;48.516;-2.768;2023-10-08T00:38:45;12.13;;;10.82;;
72813;SDS011;60945;48.516;-2.768;2023-10-08T00:41:14;11.93;;;10.93;;
72813;SDS011;60945;48.516;-2.768;2023-10-08T00:43:40;11.93;;;10.93;;
72813;SDS011;60945;48.516;-2.768;2023-10-08T00:46:07;11.82;;;10.90;;
72813;SDS011;60945;48.516;-2.768;2023-10-08T00:48:50;11.93;;;11.13;;
72813;SDS011;60945;48.516;-2.768;2023-10-08T00:51:21;12.65;;;11.45;;
72813;SDS011;60945;48.516;-2.768;2023-10-08T00:53:51;12.95;;;11.85;;
72813;SDS011;60945;48.516;-2.768;2023-10-08T00:56:27;12.50;;;11.40;;
72813;SDS011;60945;48.516;-2.768;2023-10-08T00:59:11;12.25;;;11.18;;
72813;SDS011;60945;48.516;-2.768;2023-10-08T01:01:39;12.35;;;11.45;;
72813;SDS011;60945;48.516;-2.768;2023-10-08T01:04:05;12.02;;;11.02;;
72813;SDS011;60945;48.516;-2.768;2023-10-08T01:06:37;11.90;;;10.87;;
72813;SDS011;60945;48.516;-2.768;2023-10-08T01:09:04;12.18;;;11.05;;
72813;SDS011;60945;48.516;-2.768;2023-10-08T01:11:43;11.63;;;10.65;;
72813;SDS011;60945;48.516;-2.768;2023-10-08T01:14:14;12.77;;;11.55;;
72813;SDS011;60945;48.516;-2.768;2023-10-08T01:16:46;12.10;;;11.20;;
72813;SDS011;60945;48.516;-2.768;2023-10-08T01:19:17;12.55;;;11.35;;
72813;SDS011;60945;48.516;-2.768;2023-10-08T01:21:45;12.23;;;11.23;;
72813;SDS011;60945;48.516;-2.768;2023-10-08T01:24:10;12.02;;;10.90;;
72813;SDS011;60945;48.516;-2.768;2023-10-08T01:26:41;12.43;;;11.50;;
72813;SDS011;60945;48.516;-2.768;2023-10-08T01:29:10;12.95;;;11.88;;
72813;SDS011;60945;48.516;-2.768;2023-10-08T01:31:45;11.80;;;10.90;;
72813;SDS011;60945;48.516;-2.768;2023-10-08T01:34:11;11.82;;;10.93;;
72813;SDS011;60945;48.516;-2.768;2023-10-08T01:36:42;11.82;;;10.93;;
72813;SDS011;60945;48.516;-2.768;2023-10-08T01:39:09;11.43;;;10.73;;
72813;SDS011;60945;48.516;-2.768;2023-10-08T01:41:42;12.05;;;10.95;;
72813;SDS011;60945;48.516;-2.768;2023-10-08T01:44:08;13.18;;;12.13;;
72813;SDS011;60945;48.516;-2.768;2023-10-08T01:46:34;14.98;;;13.35;;
72813;SDS011;60945;48.516;-2.768;2023-10-08T01:49:01;14.20;;;12.90;;
72813;SDS011;60945;48.516;-2.768;2023-10-08T01:51:33;15.18;;;13.68;;
72813;SDS011;60945;48.516;-2.768;2023-10-08T01:54:09;14.77;;;13.38;;
72813;SDS011;60945;48.516;-2.768;2023-10-08T01:56:39;13.63;;;12.48;;
72813;SDS011;60945;48.516;-2.768;2023-10-08T01:59:10;13.23;;;11.95;;
72813;SDS011;60945;48.516;-2.768;2023-10-08T02:01:37;12.27;;;11.38;;
72813;SDS011;60945;48.516;-2.768;2023-10-08T02:04:04;11.88;;;10.88;;
72813;SDS011;60945;48.516;-2.768;2023-10-08T02:06:32;12.70;;;11.70;;
72813;SDS011;60945;48.516;-2.768;2023-10-08T02:09:03;11.55;;;10.70;;
72813;SDS011;60945;48.516;-2.768;2023-10-08T02:11:42;11.70;;;10.88;;
72813;SDS011;60945;48.516;-2.768;2023-10-08T02:14:09;12.32;;;11.32;;
72813;SDS011;60945;48.516;-2.768;2023-10-08T02:16:34;12.30;;;11.38;;
72813;SDS011;60945;48.516;-2.768;2023-10-08T02:19:02;12.43;;;11.45;;
72813;SDS011;60945;48.516;-2.768;2023-10-08T02:21:28;12.18;;;11.23;;
72813;SDS011;60945;48.516;-2.768;2023-10-08T02:23:54;12.70;;;11.48;;
72813;SDS011;60945;48.516;-2.768;2023-10-08T02:26:20;12.43;;;11.23;;
72813;SDS011;60945;48.516;-2.768;2023-10-08T02:28:45;12.50;;;11.38;;
72813;SDS011;60945;48.516;-2.768;2023-10-08T02:31:11;12.55;;;11.45;;
72813;SDS011;60945;48.516;-2.768;2023-10-08T02:33:37;11.73;;;10.90;;
72813;SDS011;60945;48.516;-2.768;2023-10-08T02:36:03;12.45;;;11.45;;
72813;SDS011;60945;48.516;-2.768;2023-10-08T02:38:29;11.95;;;11.15;;
72813;SDS011;60945;48.516;-2.768;2023-10-08T02:41:03;12.23;;;11.30;;
72813;SDS011;60945;48.516;-2.768;2023-10-08T02:43:32;11.68;;;10.57;;
72813;SDS011;60945;48.516;-2.768;2023-10-08T02:45:59;18.00;;;17.00;;
72813;SDS011;60945;48.516;-2.768;2023-10-08T02:48:25;12.73;;;11.63;;
72813;SDS011;60945;48.516;-2.768;2023-10-08T02:50:52;12.75;;;11.75;;
72813;SDS011;60945;48.516;-2.768;2023-10-08T02:53:19;13.05;;;11.95;;
72813;SDS011;60945;48.516;-2.768;2023-10-08T02:55:50;12.50;;;11.50;;
72813;SDS011;60945;48.516;-2.768;2023-10-08T02:58:17;12.10;;;11.20;;
72813;SDS011;60945;48.516;-2.768;2023-10-08T03:00:46;12.23;;;11.25;;
72813;SDS011;60945;48.516;-2.768;2023-10-08T03:03:13;11.68;;;10.77;;
72813;SDS011;60945;48.516;-2.768;2023-10-08T03:05:49;10.85;;;10.10;;
72813;SDS011;60945;48.516;-2.768;2023-10-08T03:08:17;12.63;;;10.70;;
72813;SDS011;60945;48.516;-2.768;2023-10-08T03:10:47;11.80;;;10.70;;
72813;SDS011;60945;48.516;-2.768;2023-10-08T03:13:15;11.55;;;10.50;;
72813;SDS011;60945;48.516;-2.768;2023-10-08T03:15:41;11.45;;;10.65;;
72813;SDS011;60945;48.516;-2.768;2023-10-08T03:18:33;11.27;;;10.38;;
72813;SDS011;60945;48.516;-2.768;2023-10-08T03:21:07;11.73;;;10.88;;
72813;SDS011;60945;48.516;-2.768;2023-10-08T03:24:05;11.43;;;10.63;;
72813;SDS011;60945;48.516;-2.768;2023-10-08T03:27:09;12.00;;;11.10;;
72813;SDS011;60945;48.516;-2.768;2023-10-08T03:29:40;11.25;;;10.52;;
72813;SDS011;60945;48.516;-2.768;2023-10-08T03:32:09;11.68;;;10.88;;
72813;SDS011;60945;48.516;-2.768;2023-10-08T03:34:45;11.10;;;10.30;;
72813;SDS011;60945;48.516;-2.768;2023-10-08T03:37:16;11.75;;;10.80;;
72813;SDS011;60945;48.516;-2.768;2023-10-08T03:39:49;11.80;;;10.90;;
72813;SDS011;60945;48.516;-2.768;2023-10-08T03:42:47;11.25;;;10.45;;
72813;SDS011;60945;48.516;-2.768;2023-10-08T03:45:14;11.95;;;11.10;;
72813;SDS011;60945;48.516;-2.768;2023-10-08T03:47:47;11.52;;;10.60;;
72813;SDS011;60945;48.516;-2.768;2023-10-08T03:50:27;12.00;;;10.90;;
72813;SDS011;60945;48.516;-2.768;2023-10-08T03:53:05;11.35;;;10.50;;
72813;SDS011;60945;48.516;-2.768;2023-10-08T03:55:36;11.75;;;10.82;;
72813;SDS011;60945;48.516;-2.768;2023-10-08T03:58:05;11.98;;;10.90;;
72813;SDS011;60945;48.516;-2.768;2023-10-08T04:00:35;11.88;;;10.88;;
72813;SDS011;60945;48.516;-2.768;2023-10-08T04:03:06;11.65;;;10.75;;
72813;SDS011;60945;48.516;-2.768;2023-10-08T04:05:36;10.77;;;9.80;;
72813;SDS011;60945;48.516;-2.768;2023-10-08T04:08:17;11.20;;;10.30;;
72813;SDS011;60945;48.516;-2.768;2023-10-08T04:10:44;11.32;;;10.40;;
72813;SDS011;60945;48.516;-2.768;2023-10-08T04:13:10;11.68;;;10.68;;
72813;SDS011;60945;48.516;-2.768;2023-10-08T04:15:41;11.30;;;10.40;;
72813;SDS011;60945;48.516;-2.768;2023-10-08T04:18:11;11.80;;;10.57;;
72813;SDS011;60945;48.516;-2.768;2023-10-08T04:20:38;11.07;;;10.25;;
72813;SDS011;60945;48.516;-2.768;2023-10-08T04:23:05;11.77;;;10.80;;
72813;SDS011;60945;48.516;-2.768;2023-10-08T04:25:39;11.18;;;10.30;;
72813;SDS011;60945;48.516;-2.768;2023-10-08T04:28:07;11.50;;;10.70;;
72813;SDS011;60945;48.516;-2.768;2023-10-08T04:30:38;11.50;;;10.70;;
72813;SDS011;60945;48.516;-2.768;2023-10-08T04:33:07;11.18;;;10.38;;
72813;SDS011;60945;48.516;-2.768;2023-10-08T04:35:36;11.88;;;10.80;;
72813;SDS011;60945;48.516;-2.768;2023-10-08T04:38:13;11.70;;;10.80;;
72813;SDS011;60945;48.516;-2.768;2023-10-08T04:40:46;11.35;;;10.45;;
72813;SDS011;60945;48.516;-2.768;2023-10-08T04:43:17;11.38;;;10.48;;
72813;SDS011;60945;48.516;-2.768;2023-10-08T04:45:53;11.23;;;10.38;;
72813;SDS011;60945;48.516;-2.768;2023-10-08T04:48:42;10.98;;;10.07;;
72813;SDS011;60945;48.516;-2.768;2023-10-08T04:51:08;11.32;;;10.48;;
72813;SDS011;60945;48.516;-2.768;2023-10-08T04:53:37;11.52;;;10.63;;
72813;SDS011;60945;48.516;-2.768;2023-10-08T04:56:06;11.57;;;10.68;;
72813;SDS011;60945;48.516;-2.768;2023-10-08T04:58:39;11.43;;;10.60;;
72813;SDS011;60945;48.516;-2.768;2023-10-08T05:01:08;11.60;;;10.80;;
72813;SDS011;60945;48.516;-2.768;2023-10-08T05:03:50;12.02;;;11.02;;
72813;SDS011;60945;48.516;-2.768;2023-10-08T05:06:39;12.73;;;11.68;;
72813;SDS011;60945;48.516;-2.768;2023-10-08T05:09:15;13.77;;;12.35;;
72813;SDS011;60945;48.516;-2.768;2023-10-08T05:11:44;13.07;;;11.98;;
72813;SDS011;60945;48.516;-2.768;2023-10-08T05:14:17;12.73;;;11.63;;
72813;SDS011;60945;48.516;-2.768;2023-10-08T05:16:58;13.15;;;11.82;;
72813;SDS011;60945;48.516;-2.768;2023-10-08T05:19:47;12.32;;;11.32;;
72813;SDS011;60945;48.516;-2.768;2023-10-08T05:22:34;11.93;;;10.93;;
72813;SDS011;60945;48.516;-2.768;2023-10-08T05:24:59;12.38;;;11.23;;
72813;SDS011;60945;48.516;-2.768;2023-10-08T05:27:34;11.25;;;10.45;;
72813;SDS011;60945;48.516;-2.768;2023-10-08T05:30:23;11.85;;;10.68;;
72813;SDS011;60945;48.516;-2.768;2023-10-08T05:33:02;11.27;;;10.20;;
72813;SDS011;60945;48.516;-2.768;2023-10-08T05:35:38;12.13;;;11.20;;
72813;SDS011;60945;48.516;-2.768;2023-10-08T05:38:14;11.40;;;10.50;;
72813;SDS011;60945;48.516;-2.768;2023-10-08T05:40:47;11.80;;;10.95;;
72813;SDS011;60945;48.516;-2.768;2023-10-08T05:43:25;11.43;;;10.57;;
72813;SDS011;60945;48.516;-2.768;2023-10-08T05:46:15;11.07;;;10.20;;
72813;SDS011;60945;48.516;-2.768;2023-10-08T05:48:53;11.70;;;10.70;;
72813;SDS011;60945;48.516;-2.768;2023-10-08T05:51:33;12.32;;;11.23;;
72813;SDS011;60945;48.516;-2.768;2023-10-08T05:54:22;12.30;;;11.18;;
72813;SDS011;60945;48.516;-2.768;2023-10-08T05:56:56;12.35;;;11.35;;
72813;SDS011;60945;48.516;-2.768;2023-10-08T05:59:30;11.57;;;10.48;;
72813;SDS011;60945;48.516;-2.768;2023-10-08T06:02:04;12.52;;;11.43;;
72813;SDS011;60945;48.516;-2.768;2023-10-08T06:04:50;11.40;;;10.40;;
72813;SDS011;60945;48.516;-2.768;2023-10-08T06:07:35;11.20;;;10.27;;
72813;SDS011;60945;48.516;-2.768;2023-10-08T06:12:58;12.27;;;11.10;;
72813;SDS011;60945;48.516;-2.768;2023-10-08T06:15:39;11.98;;;10.98;;
72813;SDS011;60945;48.516;-2.768;2023-10-08T06:18:28;12.00;;;10.98;;
72813;SDS011;60945;48.516;-2.768;2023-10-08T06:20:55;12.45;;;11.40;;
72813;SDS011;60945;48.516;-2.768;2023-10-08T06:23:23;12.80;;;11.60;;
72813;SDS011;60945;48.516;-2.768;2023-10-08T06:25:51;12.70;;;11.68;;
72813;SDS011;60945;48.516;-2.768;2023-10-08T06:28:42;13.80;;;12.30;;
72813;SDS011;60945;48.516;-2.768;2023-10-08T06:31:09;12.85;;;11.82;;
72813;SDS011;60945;48.516;-2.768;2023-10-08T06:33:41;12.23;;;11.13;;
72813;SDS011;60945;48.516;-2.768;2023-10-08T06:36:08;12.88;;;11.80;;
72813;SDS011;60945;48.516;-2.768;2023-10-08T06:38:37;13.45;;;12.05;;
72813;SDS011;60945;48.516;-2.768;2023-10-08T06:41:13;13.93;;;12.57;;
72813;SDS011;60945;48.516;-2.768;2023-10-08T06:43:43;14.30;;;12.82;;
72813;SDS011;60945;48.516;-2.768;2023-10-08T06:46:27;13.52;;;12.20;;
72813;SDS011;60945;48.516;-2.768;2023-10-08T06:48:57;13.65;;;12.45;;
72813;SDS011;60945;48.516;-2.768;2023-10-08T06:51:36;13.15;;;12.15;;
72813;SDS011;60945;48.516;-2.768;2023-10-08T06:54:02;13.43;;;12.13;;
72813;SDS011;60945;48.516;-2.768;2023-10-08T06:56:28;12.57;;;11.38;;
72813;SDS011;60945;48.516;-2.768;2023-10-08T06:58:56;12.38;;;11.13;;
72813;SDS011;60945;48.516;-2.768;2023-10-08T07:01:24;12.13;;;11.18;;
72813;SDS011;60945;48.516;-2.768;2023-10-08T07:03:54;12.77;;;11.57;;
72813;SDS011;60945;48.516;-2.768;2023-10-08T07:06:28;13.77;;;12.57;;
72813;SDS011;60945;48.516;-2.768;2023-10-08T07:08:59;12.35;;;11.35;;
72813;SDS011;60945;48.516;-2.768;2023-10-08T07:11:29;12.73;;;11.73;;
72813;SDS011;60945;48.516;-2.768;2023-10-08T07:14:00;12.77;;;11.57;;
72813;SDS011;60945;48.516;-2.768;2023-10-08T07:16:29;12.82;;;11.73;;
72813;SDS011;60945;48.516;-2.768;2023-10-08T07:18:55;13.30;;;12.10;;
72813;SDS011;60945;48.516;-2.768;2023-10-08T07:21:27;13.23;;;11.82;;
72813;SDS011;60945;48.516;-2.768;2023-10-08T07:23:54;12.85;;;11.90;;
72813;SDS011;60945;48.516;-2.768;2023-10-08T07:26:28;13.18;;;11.57;;
72813;SDS011;60945;48.516;-2.768;2023-10-08T07:29:04;13.10;;;11.88;;
72813;SDS011;60945;48.516;-2.768;2023-10-08T07:31:33;13.27;;;11.93;;
72813;SDS011;60945;48.516;-2.768;2023-10-08T07:34:01;13.35;;;12.05;;
72813;SDS011;60945;48.516;-2.768;2023-10-08T07:36:46;12.05;;;11.05;;
72813;SDS011;60945;48.516;-2.768;2023-10-08T07:39:14;11.93;;;10.77;;
72813;SDS011;60945;48.516;-2.768;2023-10-08T07:41:49;11.25;;;10.15;;
72813;SDS011;60945;48.516;-2.768;2023-10-08T07:44:15;11.63;;;10.63;;
72813;SDS011;60945;48.516;-2.768;2023-10-08T07:46:46;10.98;;;10.02;;
72813;SDS011;60945;48.516;-2.768;2023-10-08T07:49:12;10.45;;;9.55;;
72813;SDS011;60945;48.516;-2.768;2023-10-08T07:51:39;11.00;;;10.10;;
72813;SDS011;60945;48.516;-2.768;2023-10-08T07:54:05;11.20;;;10.20;;
72813;SDS011;60945;48.516;-2.768;2023-10-08T07:56:35;11.05;;;10.05;;
72813;SDS011;60945;48.516;-2.768;2023-10-08T07:59:02;10.63;;;9.82;;
72813;SDS011;60945;48.516;-2.768;2023-10-08T08:01:33;10.90;;;10.00;;
72813;SDS011;60945;48.516;-2.768;2023-10-08T08:03:59;10.18;;;9.48;;
72813;SDS011;60945;48.516;-2.768;2023-10-08T08:06:25;10.63;;;9.63;;
72813;SDS011;60945;48.516;-2.768;2023-10-08T08:08:51;10.63;;;9.73;;
72813;SDS011;60945;48.516;-2.768;2023-10-08T08:11:16;11.00;;;9.93;;
72813;SDS011;60945;48.516;-2.768;2023-10-08T08:13:43;9.85;;;9.05;;
72813;SDS011;60945;48.516;-2.768;2023-10-08T08:16:13;10.13;;;9.23;;
72813;SDS011;60945;48.516;-2.768;2023-10-08T08:18:44;9.52;;;8.80;;
72813;SDS011;60945;48.516;-2.768;2023-10-08T08:21:10;9.38;;;8.68;;
72813;SDS011;60945;48.516;-2.768;2023-10-08T08:23:43;9.65;;;8.95;;
72813;SDS011;60945;48.516;-2.768;2023-10-08T08:26:13;10.50;;;9.43;;
72813;SDS011;60945;48.516;-2.768;2023-10-08T08:28:52;10.32;;;9.57;;
72813;SDS011;60945;48.516;-2.768;2023-10-08T08:31:24;10.77;;;9.90;;
72813;SDS011;60945;48.516;-2.768;2023-10-08T08:33:50;11.07;;;10.07;;
72813;SDS011;60945;48.516;-2.768;2023-10-08T08:36:21;10.38;;;9.50;;
72813;SDS011;60945;48.516;-2.768;2023-10-08T08:38:48;10.00;;;9.32;;
72813;SDS011;60945;48.516;-2.768;2023-10-08T08:41:15;10.05;;;9.27;;
72813;SDS011;60945;48.516;-2.768;2023-10-08T08:43:43;9.73;;;9.05;;
72813;SDS011;60945;48.516;-2.768;2023-10-08T08:46:13;9.93;;;9.18;;
72813;SDS011;60945;48.516;-2.768;2023-10-08T08:48:40;10.20;;;9.50;;
72813;SDS011;60945;48.516;-2.768;2023-10-08T08:51:06;10.50;;;9.80;;
72813;SDS011;60945;48.516;-2.768;2023-10-08T08:53:34;9.82;;;9.20;;
72813;SDS011;60945;48.516;-2.768;2023-10-08T08:56:00;9.55;;;8.95;;
72813;SDS011;60945;48.516;-2.768;2023-10-08T08:58:30;10.50;;;9.70;;
72813;SDS011;60945;48.516;-2.768;2023-10-08T09:01:01;10.07;;;9.30;;
72813;SDS011;60945;48.516;-2.768;2023-10-08T09:05:56;10.00;;;9.20;;
72813;SDS011;60945;48.516;-2.768;2023-10-08T09:08:22;10.63;;;9.73;;
72813;SDS011;60945;48.516;-2.768;2023-10-08T09:10:59;10.98;;;10.27;;
72813;SDS011;60945;48.516;-2.768;2023-10-08T09:13:33;11.27;;;10.25;;
72813;SDS011;60945;48.516;-2.768;2023-10-08T09:16:07;10.20;;;9.50;;
72813;SDS011;60945;48.516;-2.768;2023-10-08T09:18:36;11.10;;;10.30;;
72813;SDS011;60945;48.516;-2.768;2023-10-08T09:21:08;10.88;;;10.07;;
72813;SDS011;60945;48.516;-2.768;2023-10-08T09:23:43;11.00;;;10.07;;
72813;SDS011;60945;48.516;-2.768;2023-10-08T09:26:09;11.23;;;10.43;;
72813;SDS011;60945;48.516;-2.768;2023-10-08T09:28:36;11.30;;;10.40;;
72813;SDS011;60945;48.516;-2.768;2023-10-08T09:31:04;10.90;;;10.02;;
72813;SDS011;60945;48.516;-2.768;2023-10-08T09:33:31;10.40;;;9.60;;
72813;SDS011;60945;48.516;-2.768;2023-10-08T09:35:58;10.60;;;9.90;;
72813;SDS011;60945;48.516;-2.768;2023-10-08T09:38:27;10.27;;;9.57;;
72813;SDS011;60945;48.516;-2.768;2023-10-08T09:40:55;10.10;;;9.40;;
72813;SDS011;60945;48.516;-2.768;2023-10-08T09:43:22;9.77;;;9.18;;
72813;SDS011;60945;48.516;-2.768;2023-10-08T09:45:52;10.23;;;9.25;;
72813;SDS011;60945;48.516;-2.768;2023-10-08T09:48:22;9.52;;;8.82;;
72813;SDS011;60945;48.516;-2.768;2023-10-08T09:50:55;8.55;;;7.95;;
72813;SDS011;60945;48.516;-2.768;2023-10-08T09:53:36;9.48;;;8.77;;
72813;SDS011;60945;48.516;-2.768;2023-10-08T09:56:13;9.30;;;8.60;;
72813;SDS011;60945;48.516;-2.768;2023-10-08T09:58:40;9.43;;;8.48;;
72813;SDS011;60945;48.516;-2.768;2023-10-08T10:01:08;9.68;;;8.75;;
72813;SDS011;60945;48.516;-2.768;2023-10-08T10:03:34;9.60;;;8.90;;
72813;SDS011;60945;48.516;-2.768;2023-10-08T10:06:01;8.88;;;8.18;;
72813;SDS011;60945;48.516;-2.768;2023-10-08T10:08:27;9.18;;;8.40;;
72813;SDS011;60945;48.516;-2.768;2023-10-08T10:11:00;9.40;;;8.48;;
72813;SDS011;60945;48.516;-2.768;2023-10-08T10:13:33;9.13;;;8.35;;
72813;SDS011;60945;48.516;-2.768;2023-10-08T10:16:04;8.85;;;8.15;;
72813;SDS011;60945;48.516;-2.768;2023-10-08T10:18:33;9.10;;;8.30;;
72813;SDS011;60945;48.516;-2.768;2023-10-08T10:23:45;8.60;;;7.85;;
72813;SDS011;60945;48.516;-2.768;2023-10-08T10:26:30;9.10;;;8.35;;
72813;SDS011;60945;48.516;-2.768;2023-10-08T10:29:17;8.98;;;7.90;;
72813;SDS011;60945;48.516;-2.768;2023-10-08T10:31:48;8.38;;;7.75;;
72813;SDS011;60945;48.516;-2.768;2023-10-08T10:34:25;9.45;;;8.65;;
72813;SDS011;60945;48.516;-2.768;2023-10-08T10:36:56;9.23;;;8.50;;
72813;SDS011;60945;48.516;-2.768;2023-10-08T10:39:41;8.45;;;7.85;;
72813;SDS011;60945;48.516;-2.768;2023-10-08T10:42:07;8.73;;;8.15;;
72813;SDS011;60945;48.516;-2.768;2023-10-08T10:44:45;9.55;;;8.48;;
72813;SDS011;60945;48.516;-2.768;2023-10-08T10:47:15;9.00;;;8.30;;
72813;SDS011;60945;48.516;-2.768;2023-10-08T10:49:45;9.00;;;8.30;;
72813;SDS011;60945;48.516;-2.768;2023-10-08T10:52:16;9.55;;;8.77;;
72813;SDS011;60945;48.516;-2.768;2023-10-08T10:54:57;9.40;;;8.65;;
72813;SDS011;60945;48.516;-2.768;2023-10-08T10:57:39;8.75;;;7.90;;
72813;SDS011;60945;48.516;-2.768;2023-10-08T11:00:07;8.50;;;7.80;;
72813;SDS011;60945;48.516;-2.768;2023-10-08T11:02:52;8.15;;;7.55;;
72813;SDS011;60945;48.516;-2.768;2023-10-08T11:05:21;8.75;;;8.05;;
72813;SDS011;60945;48.516;-2.768;2023-10-08T11:07:54;9.00;;;8.15;;
72813;SDS011;60945;48.516;-2.768;2023-10-08T11:10:36;8.57;;;7.85;;
72813;SDS011;60945;48.516;-2.768;2023-10-08T11:13:11;8.57;;;7.82;;
72813;SDS011;60945;48.516;-2.768;2023-10-08T11:15:43;8.32;;;7.72;;
72813;SDS011;60945;48.516;-2.768;2023-10-08T11:18:14;8.48;;;7.90;;
72813;SDS011;60945;48.516;-2.768;2023-10-08T11:20:47;8.35;;;7.72;;
72813;SDS011;60945;48.516;-2.768;2023-10-08T11:23:36;9.55;;;8.63;;
72813;SDS011;60945;48.516;-2.768;2023-10-08T11:26:06;8.60;;;7.97;;
72813;SDS011;60945;48.516;-2.768;2023-10-08T11:28:33;7.80;;;7.30;;
72813;SDS011;60945;48.516;-2.768;2023-10-08T11:31:04;8.20;;;7.53;;
72813;SDS011;60945;48.516;-2.768;2023-10-08T11:33:43;8.15;;;7.45;;
72813;SDS011;60945;48.516;-2.768;2023-10-08T11:36:19;8.50;;;7.68;;
72813;SDS011;60945;48.516;-2.768;2023-10-08T11:38:52;8.50;;;7.72;;
72813;SDS011;60945;48.516;-2.768;2023-10-08T11:41:21;8.50;;;7.80;;
72813;SDS011;60945;48.516;-2.768;2023-10-08T11:43:50;7.90;;;7.38;;
72813;SDS011;60945;48.516;-2.768;2023-10-08T11:46:25;8.43;;;7.63;;
72813;SDS011;60945;48.516;-2.768;2023-10-08T11:48:53;9.00;;;8.13;;
72813;SDS011;60945;48.516;-2.768;2023-10-08T11:51:23;8.05;;;7.45;;
72813;SDS011;60945;48.516;-2.768;2023-10-08T11:53:50;8.15;;;7.43;;
72813;SDS011;60945;48.516;-2.768;2023-10-08T11:56:17;8.60;;;8.00;;
72813;SDS011;60945;48.516;-2.768;2023-10-08T11:58:46;8.90;;;8.30;;
72813;SDS011;60945;48.516;-2.768;2023-10-08T12:01:12;8.57;;;7.88;;
72813;SDS011;60945;48.516;-2.768;2023-10-08T12:03:41;8.80;;;8.10;;
72813;SDS011;60945;48.516;-2.768;2023-10-08T12:06:09;8.82;;;8.23;;
72813;SDS011;60945;48.516;-2.768;2023-10-08T12:08:41;9.00;;;8.40;;
72813;SDS011;60945;48.516;-2.768;2023-10-08T12:11:07;8.48;;;7.88;;
72813;SDS011;60945;48.516;-2.768;2023-10-08T12:13:37;9.38;;;8.15;;
72813;SDS011;60945;48.516;-2.768;2023-10-08T12:16:03;8.25;;;7.60;;
72813;SDS011;60945;48.516;-2.768;2023-10-08T12:18:37;8.80;;;8.10;;
72813;SDS011;60945;48.516;-2.768;2023-10-08T12:21:07;9.38;;;8.48;;
72813;SDS011;60945;48.516;-2.768;2023-10-08T12:23:39;8.52;;;7.93;;
72813;SDS011;60945;48.516;-2.768;2023-10-08T12:26:08;8.18;;;7.47;;
72813;SDS011;60945;48.516;-2.768;2023-10-08T12:28:34;9.07;;;8.30;;
72813;SDS011;60945;48.516;-2.768;2023-10-08T12:31:01;8.80;;;8.10;;
72813;SDS011;60945;48.516;-2.768;2023-10-08T12:33:29;8.35;;;7.75;;
72813;SDS011;60945;48.516;-2.768;2023-10-08T12:35:55;8.77;;;7.97;;
72813;SDS011;60945;48.516;-2.768;2023-10-08T12:38:22;8.77;;;8.15;;
72813;SDS011;60945;48.516;-2.768;2023-10-08T12:40:48;9.55;;;8.68;;
72813;SDS011;60945;48.516;-2.768;2023-10-08T12:45:52;9.15;;;8.25;;
72813;SDS011;60945;48.516;-2.768;2023-10-08T12:50:46;8.88;;;8.18;;
72813;SDS011;60945;48.516;-2.768;2023-10-08T12:53:18;10.27;;;9.27;;
72813;SDS011;60945;48.516;-2.768;2023-10-08T12:58:35;9.50;;;8.80;;
72813;SDS011;60945;48.516;-2.768;2023-10-08T13:01:12;9.45;;;8.75;;
72813;SDS011;60945;48.516;-2.768;2023-10-08T13:03:39;9.38;;;8.50;;
72813;SDS011;60945;48.516;-2.768;2023-10-08T13:06:13;10.18;;;9.27;;
72813;SDS011;60945;48.516;-2.768;2023-10-08T13:08:53;9.90;;;9.13;;
72813;SDS011;60945;48.516;-2.768;2023-10-08T13:11:20;8.93;;;8.30;;
72813;SDS011;60945;48.516;-2.768;2023-10-08T13:13:53;11.02;;;8.63;;
72813;SDS011;60945;48.516;-2.768;2023-10-08T13:16:26;9.65;;;8.75;;
72813;SDS011;60945;48.516;-2.768;2023-10-08T13:18:56;11.43;;;10.32;;
72813;SDS011;60945;48.516;-2.768;2023-10-08T13:21:24;11.13;;;10.23;;
72813;SDS011;60945;48.516;-2.768;2023-10-08T13:23:53;11.68;;;10.77;;
72813;SDS011;60945;48.516;-2.768;2023-10-08T13:26:18;11.05;;;10.02;;
72813;SDS011;60945;48.516;-2.768;2023-10-08T13:28:47;11.25;;;10.38;;
72813;SDS011;60945;48.516;-2.768;2023-10-08T13:31:13;11.35;;;10.65;;
72813;SDS011;60945;48.516;-2.768;2023-10-08T13:33:41;13.30;;;12.07;;
72813;SDS011;60945;48.516;-2.768;2023-10-08T13:36:09;12.05;;;11.32;;
72813;SDS011;60945;48.516;-2.768;2023-10-08T13:38:38;12.40;;;11.50;;
72813;SDS011;60945;48.516;-2.768;2023-10-08T13:43:43;13.13;;;12.32;;
72813;SDS011;60945;48.516;-2.768;2023-10-08T13:46:14;14.15;;;13.23;;
72813;SDS011;60945;48.516;-2.768;2023-10-08T13:48:42;14.90;;;14.00;;
72813;SDS011;60945;48.516;-2.768;2023-10-08T13:51:12;14.82;;;13.95;;
72813;SDS011;60945;48.516;-2.768;2023-10-08T13:53:40;15.15;;;14.25;;
72813;SDS011;60945;48.516;-2.768;2023-10-08T13:56:10;14.32;;;13.63;;
72813;SDS011;60945;48.516;-2.768;2023-10-08T13:58:36;14.93;;;13.95;;
72813;SDS011;60945;48.516;-2.768;2023-10-08T14:01:11;16.15;;;15.10;;
72813;SDS011;60945;48.516;-2.768;2023-10-08T14:03:47;15.50;;;14.70;;
72813;SDS011;60945;48.516;-2.768;2023-10-08T14:06:21;14.23;;;13.43;;
72813;SDS011;60945;48.516;-2.768;2023-10-08T14:08:47;15.27;;;14.48;;
72813;SDS011;60945;48.516;-2.768;2023-10-08T14:11:20;14.32;;;13.43;;
72813;SDS011;60945;48.516;-2.768;2023-10-08T14:13:50;14.75;;;14.05;;
72813;SDS011;60945;48.516;-2.768;2023-10-08T14:16:17;14.93;;;14.20;;
72813;SDS011;60945;48.516;-2.768;2023-10-08T14:18:44;15.55;;;14.75;;
72813;SDS011;60945;48.516;-2.768;2023-10-08T14:21:15;15.80;;;15.10;;
72813;SDS011;60945;48.516;-2.768;2023-10-08T14:23:43;15.85;;;15.05;;
72813;SDS011;60945;48.516;-2.768;2023-10-08T14:26:09;15.40;;;14.57;;
72813;SDS011;60945;48.516;-2.768;2023-10-08T14:28:36;15.30;;;14.60;;
72813;SDS011;60945;48.516;-2.768;2023-10-08T14:31:16;15.48;;;14.50;;
72813;SDS011;60945;48.516;-2.768;2023-10-08T14:33:42;15.25;;;14.45;;
72813;SDS011;60945;48.516;-2.768;2023-10-08T14:36:22;15.18;;;14.27;;
72813;SDS011;60945;48.516;-2.768;2023-10-08T14:39:06;14.68;;;13.80;;
72813;SDS011;60945;48.516;-2.768;2023-10-08T14:41:51;12.43;;;11.73;;
72813;SDS011;60945;48.516;-2.768;2023-10-08T14:44:35;12.73;;;12.02;;
72813;SDS011;60945;48.516;-2.768;2023-10-08T14:47:02;11.55;;;10.77;;
72813;SDS011;60945;48.516;-2.768;2023-10-08T14:49:29;11.27;;;10.57;;
72813;SDS011;60945;48.516;-2.768;2023-10-08T14:51:55;12.13;;;11.13;;
72813;SDS011;60945;48.516;-2.768;2023-10-08T14:54:20;11.50;;;10.77;;
72813;SDS011;60945;48.516;-2.768;2023-10-08T14:56:46;11.52;;;10.63;;
72813;SDS011;60945;48.516;-2.768;2023-10-08T14:59:12;11.90;;;11.10;;
72813;SDS011;60945;48.516;-2.768;2023-10-08T15:01:41;11.77;;;10.90;;